sensor_id;sensor_type;location;lat;lon;timestamp;P1;durP1;ratioP1;P2;durP2;ratioP2
43337;SDS011;28933;52.492;13.434;2024-03-02T00:01:43;56.38;;;32.63;;
43337;SDS011;28933;52.492;13.434;2024-03-02T00:04:29;50.40;;;35.15;;
43337;SDS011;28933;52.492;13.434;2024-03-02T00:07:15;47.22;;;33.58;;
43337;SDS011;28933;52.492;13.434;2024-03-02T00:10:04;53.00;;;34.33;;
43337;SDS011;28933;52.492;13.434;2024-03-02T00:12:56;53.90;;;35.53;;
43337;SDS011;28933;52.492;13.434;2024-03-02T00:18:32;50.75;;;33.00;;
43337;SDS011;28933;52.492;13.434;2024-03-02T00:21:20;49.90;;;34.67;;
43337;SDS011;28933;52.492;13.434;2024-03-02T00:24:20;52.50;;;33.97;;
43337;SDS011;28933;52.492;13.434;2024-03-02T00:27:09;48.40;;;32.65;;
43337;SDS011;28933;52.492;13.434;2024-03-02T00:30:00;48.95;;;32.92;;
43337;SDS011;28933;52.492;13.434;2024-03-02T00:32:47;51.40;;;32.85;;
43337;SDS011;28933;52.492;13.434;2024-03-02T00:35:33;44.47;;;32.42;;
43337;SDS011;28933;52.492;13.434;2024-03-02T00:38:19;49.65;;;31.88;;
43337;SDS011;28933;52.492;13.434;2024-03-02T00:41:05;52.97;;;34.33;;
43337;SDS011;28933;52.492;13.434;2024-03-02T00:46:43;55.25;;;34.85;;
43337;SDS011;28933;52.492;13.434;2024-03-02T00:49:29;52.45;;;33.80;;
43337;SDS011;28933;52.492;13.434;2024-03-02T00:52:15;52.35;;;34.15;;
43337;SDS011;28933;52.492;13.434;2024-03-02T00:55:01;59.15;;;37.83;;
43337;SDS011;28933;52.492;13.434;2024-03-02T00:57:47;54.05;;;34.70;;
43337;SDS011;28933;52.492;13.434;2024-03-02T01:00:33;50.15;;;33.72;;
43337;SDS011;28933;52.492;13.434;2024-03-02T01:03:19;51.92;;;33.50;;
43337;SDS011;28933;52.492;13.434;2024-03-02T01:06:05;54.70;;;34.03;;
43337;SDS011;28933;52.492;13.434;2024-03-02T01:08:52;60.42;;;34.92;;
43337;SDS011;28933;52.492;13.434;2024-03-02T01:11:38;62.47;;;35.13;;
43337;SDS011;28933;52.492;13.434;2024-03-02T01:14:24;56.30;;;34.75;;
43337;SDS011;28933;52.492;13.434;2024-03-02T01:17:10;50.60;;;33.20;;
43337;SDS011;28933;52.492;13.434;2024-03-02T01:19:56;50.17;;;32.08;;
43337;SDS011;28933;52.492;13.434;2024-03-02T01:22:42;51.22;;;34.75;;
43337;SDS011;28933;52.492;13.434;2024-03-02T01:25:28;51.20;;;34.58;;
43337;SDS011;28933;52.492;13.434;2024-03-02T01:28:14;56.03;;;34.22;;
43337;SDS011;28933;52.492;13.434;2024-03-02T01:31:00;48.47;;;33.80;;
43337;SDS011;28933;52.492;13.434;2024-03-02T01:33:47;50.53;;;33.75;;
43337;SDS011;28933;52.492;13.434;2024-03-02T01:36:33;48.10;;;32.47;;
43337;SDS011;28933;52.492;13.434;2024-03-02T01:39:19;50.42;;;33.80;;
43337;SDS011;28933;52.492;13.434;2024-03-02T01:42:05;50.30;;;34.08;;
43337;SDS011;28933;52.492;13.434;2024-03-02T01:44:51;51.85;;;34.55;;
43337;SDS011;28933;52.492;13.434;2024-03-02T01:47:37;50.25;;;32.97;;
43337;SDS011;28933;52.492;13.434;2024-03-02T01:50:29;52.30;;;34.70;;
43337;SDS011;28933;52.492;13.434;2024-03-02T01:53:17;50.97;;;33.65;;
43337;SDS011;28933;52.492;13.434;2024-03-02T01:56:04;49.92;;;33.03;;
43337;SDS011;28933;52.492;13.434;2024-03-02T01:58:50;51.60;;;35.65;;
43337;SDS011;28933;52.492;13.434;2024-03-02T02:01:36;49.17;;;33.65;;
43337;SDS011;28933;52.492;13.434;2024-03-02T02:04:22;50.25;;;32.70;;
43337;SDS011;28933;52.492;13.434;2024-03-02T02:07:13;52.60;;;34.22;;
43337;SDS011;28933;52.492;13.434;2024-03-02T02:09:59;54.00;;;34.75;;
43337;SDS011;28933;52.492;13.434;2024-03-02T02:12:46;52.35;;;34.72;;
43337;SDS011;28933;52.492;13.434;2024-03-02T02:15:32;51.63;;;35.33;;
43337;SDS011;28933;52.492;13.434;2024-03-02T02:18:20;53.08;;;33.60;;
43337;SDS011;28933;52.492;13.434;2024-03-02T02:21:06;50.53;;;33.17;;
43337;SDS011;28933;52.492;13.434;2024-03-02T02:23:52;54.97;;;35.42;;
43337;SDS011;28933;52.492;13.434;2024-03-02T02:26:38;56.13;;;34.85;;
43337;SDS011;28933;52.492;13.434;2024-03-02T02:29:24;50.90;;;34.67;;
43337;SDS011;28933;52.492;13.434;2024-03-02T02:32:10;47.10;;;33.67;;
43337;SDS011;28933;52.492;13.434;2024-03-02T02:34:55;50.13;;;35.22;;
43337;SDS011;28933;52.492;13.434;2024-03-02T02:37:41;54.22;;;34.17;;
43337;SDS011;28933;52.492;13.434;2024-03-02T02:40:28;53.65;;;33.33;;
43337;SDS011;28933;52.492;13.434;2024-03-02T02:43:15;52.95;;;33.65;;
43337;SDS011;28933;52.492;13.434;2024-03-02T02:46:02;54.45;;;36.95;;
43337;SDS011;28933;52.492;13.434;2024-03-02T02:48:48;51.00;;;34.28;;
43337;SDS011;28933;52.492;13.434;2024-03-02T02:51:34;48.92;;;33.85;;
43337;SDS011;28933;52.492;13.434;2024-03-02T02:54:20;54.60;;;36.22;;
43337;SDS011;28933;52.492;13.434;2024-03-02T02:57:05;45.85;;;32.42;;
43337;SDS011;28933;52.492;13.434;2024-03-02T02:59:51;49.72;;;34.65;;
43337;SDS011;28933;52.492;13.434;2024-03-02T03:02:37;50.90;;;34.20;;
43337;SDS011;28933;52.492;13.434;2024-03-02T03:05:24;49.85;;;32.85;;
43337;SDS011;28933;52.492;13.434;2024-03-02T03:08:10;50.55;;;33.90;;
43337;SDS011;28933;52.492;13.434;2024-03-02T03:10:56;57.45;;;34.58;;
43337;SDS011;28933;52.492;13.434;2024-03-02T03:13:42;43.42;;;32.13;;
43337;SDS011;28933;52.492;13.434;2024-03-02T03:16:28;50.10;;;34.25;;
43337;SDS011;28933;52.492;13.434;2024-03-02T03:19:14;53.35;;;36.05;;
43337;SDS011;28933;52.492;13.434;2024-03-02T03:22:00;51.38;;;31.35;;
43337;SDS011;28933;52.492;13.434;2024-03-02T03:24:45;45.55;;;31.92;;
43337;SDS011;28933;52.492;13.434;2024-03-02T03:27:31;49.78;;;33.67;;
43337;SDS011;28933;52.492;13.434;2024-03-02T03:30:18;46.97;;;32.03;;
43337;SDS011;28933;52.492;13.434;2024-03-02T03:33:04;50.47;;;34.83;;
43337;SDS011;28933;52.492;13.434;2024-03-02T03:35:54;50.20;;;32.80;;
43337;SDS011;28933;52.492;13.434;2024-03-02T03:38:40;57.70;;;33.85;;
43337;SDS011;28933;52.492;13.434;2024-03-02T03:41:26;45.60;;;32.08;;
43337;SDS011;28933;52.492;13.434;2024-03-02T03:44:11;50.00;;;33.17;;
43337;SDS011;28933;52.492;13.434;2024-03-02T03:46:57;51.75;;;31.27;;
43337;SDS011;28933;52.492;13.434;2024-03-02T03:49:43;44.95;;;29.92;;
43337;SDS011;28933;52.492;13.434;2024-03-02T03:52:29;47.28;;;33.00;;
43337;SDS011;28933;52.492;13.434;2024-03-02T03:55:15;46.53;;;31.58;;
43337;SDS011;28933;52.492;13.434;2024-03-02T03:58:01;46.58;;;31.73;;
43337;SDS011;28933;52.492;13.434;2024-03-02T04:00:47;48.92;;;32.03;;
43337;SDS011;28933;52.492;13.434;2024-03-02T04:03:33;47.45;;;32.08;;
43337;SDS011;28933;52.492;13.434;2024-03-02T04:06:19;42.22;;;30.85;;
43337;SDS011;28933;52.492;13.434;2024-03-02T04:09:05;43.92;;;31.33;;
43337;SDS011;28933;52.492;13.434;2024-03-02T04:11:51;44.08;;;30.10;;
43337;SDS011;28933;52.492;13.434;2024-03-02T04:14:37;48.50;;;31.67;;
43337;SDS011;28933;52.492;13.434;2024-03-02T04:17:23;47.75;;;32.83;;
43337;SDS011;28933;52.492;13.434;2024-03-02T04:20:09;45.83;;;30.65;;
43337;SDS011;28933;52.492;13.434;2024-03-02T04:22:57;44.78;;;30.23;;
43337;SDS011;28933;52.492;13.434;2024-03-02T04:25:43;43.20;;;29.20;;
43337;SDS011;28933;52.492;13.434;2024-03-02T04:28:29;42.67;;;29.70;;
43337;SDS011;28933;52.492;13.434;2024-03-02T04:31:15;40.20;;;28.50;;
43337;SDS011;28933;52.492;13.434;2024-03-02T04:34:02;43.13;;;29.17;;
43337;SDS011;28933;52.492;13.434;2024-03-02T04:36:48;44.60;;;28.80;;
43337;SDS011;28933;52.492;13.434;2024-03-02T04:39:34;42.58;;;28.33;;
43337;SDS011;28933;52.492;13.434;2024-03-02T04:42:21;43.05;;;28.55;;
43337;SDS011;28933;52.492;13.434;2024-03-02T04:45:07;36.78;;;26.45;;
43337;SDS011;28933;52.492;13.434;2024-03-02T04:47:53;43.38;;;27.70;;
43337;SDS011;28933;52.492;13.434;2024-03-02T04:50:39;36.88;;;27.35;;
43337;SDS011;28933;52.492;13.434;2024-03-02T04:53:25;37.72;;;25.85;;
43337;SDS011;28933;52.492;13.434;2024-03-02T04:56:11;42.42;;;29.05;;
43337;SDS011;28933;52.492;13.434;2024-03-02T04:59:16;36.75;;;25.90;;
43337;SDS011;28933;52.492;13.434;2024-03-02T05:02:03;37.75;;;27.20;;
43337;SDS011;28933;52.492;13.434;2024-03-02T05:04:49;38.53;;;26.02;;
43337;SDS011;28933;52.492;13.434;2024-03-02T05:07:35;36.58;;;26.23;;
43337;SDS011;28933;52.492;13.434;2024-03-02T05:10:21;39.50;;;27.33;;
43337;SDS011;28933;52.492;13.434;2024-03-02T05:13:07;39.10;;;27.55;;
43337;SDS011;28933;52.492;13.434;2024-03-02T05:15:52;36.75;;;25.35;;
43337;SDS011;28933;52.492;13.434;2024-03-02T05:18:38;37.13;;;25.70;;
43337;SDS011;28933;52.492;13.434;2024-03-02T05:21:24;38.33;;;25.95;;
43337;SDS011;28933;52.492;13.434;2024-03-02T05:24:10;35.63;;;25.02;;
43337;SDS011;28933;52.492;13.434;2024-03-02T05:26:56;37.50;;;25.77;;
43337;SDS011;28933;52.492;13.434;2024-03-02T05:29:42;32.25;;;24.20;;
43337;SDS011;28933;52.492;13.434;2024-03-02T05:32:28;35.50;;;25.00;;
43337;SDS011;28933;52.492;13.434;2024-03-02T05:35:14;36.03;;;25.52;;
43337;SDS011;28933;52.492;13.434;2024-03-02T05:38:00;39.65;;;25.63;;
43337;SDS011;28933;52.492;13.434;2024-03-02T05:40:46;39.25;;;26.50;;
43337;SDS011;28933;52.492;13.434;2024-03-02T05:43:32;35.28;;;24.90;;
43337;SDS011;28933;52.492;13.434;2024-03-02T05:46:18;37.15;;;26.50;;
43337;SDS011;28933;52.492;13.434;2024-03-02T05:49:04;39.22;;;27.33;;
43337;SDS011;28933;52.492;13.434;2024-03-02T05:51:50;36.13;;;26.25;;
43337;SDS011;28933;52.492;13.434;2024-03-02T05:54:36;40.72;;;28.23;;
43337;SDS011;28933;52.492;13.434;2024-03-02T05:57:21;38.10;;;28.25;;
43337;SDS011;28933;52.492;13.434;2024-03-02T06:00:24;40.08;;;28.30;;
43337;SDS011;28933;52.492;13.434;2024-03-02T06:03:10;42.13;;;28.02;;
43337;SDS011;28933;52.492;13.434;2024-03-02T06:05:56;45.03;;;29.48;;
43337;SDS011;28933;52.492;13.434;2024-03-02T06:08:42;43.35;;;29.67;;
43337;SDS011;28933;52.492;13.434;2024-03-02T06:11:28;43.17;;;29.55;;
43337;SDS011;28933;52.492;13.434;2024-03-02T06:14:14;42.70;;;29.80;;
43337;SDS011;28933;52.492;13.434;2024-03-02T06:16:59;45.75;;;28.15;;
43337;SDS011;28933;52.492;13.434;2024-03-02T06:19:45;42.42;;;29.63;;
43337;SDS011;28933;52.492;13.434;2024-03-02T06:22:31;46.13;;;30.77;;
43337;SDS011;28933;52.492;13.434;2024-03-02T06:25:17;44.88;;;30.65;;
43337;SDS011;28933;52.492;13.434;2024-03-02T06:28:03;45.22;;;31.23;;
43337;SDS011;28933;52.492;13.434;2024-03-02T06:30:49;48.13;;;30.88;;
43337;SDS011;28933;52.492;13.434;2024-03-02T06:33:35;47.63;;;30.02;;
43337;SDS011;28933;52.492;13.434;2024-03-02T06:36:21;42.63;;;30.40;;
43337;SDS011;28933;52.492;13.434;2024-03-02T06:39:08;43.38;;;30.52;;
43337;SDS011;28933;52.492;13.434;2024-03-02T06:41:55;45.45;;;30.40;;
43337;SDS011;28933;52.492;13.434;2024-03-02T06:44:41;42.92;;;29.30;;
43337;SDS011;28933;52.492;13.434;2024-03-02T06:47:27;47.58;;;31.23;;
43337;SDS011;28933;52.492;13.434;2024-03-02T06:50:13;49.80;;;32.40;;
43337;SDS011;28933;52.492;13.434;2024-03-02T06:52:59;50.10;;;33.03;;
43337;SDS011;28933;52.492;13.434;2024-03-02T06:55:45;50.03;;;30.55;;
43337;SDS011;28933;52.492;13.434;2024-03-02T06:58:32;46.90;;;29.98;;
43337;SDS011;28933;52.492;13.434;2024-03-02T07:01:17;49.42;;;32.92;;
43337;SDS011;28933;52.492;13.434;2024-03-02T07:04:05;53.88;;;31.08;;
43337;SDS011;28933;52.492;13.434;2024-03-02T07:06:52;54.70;;;33.10;;
43337;SDS011;28933;52.492;13.434;2024-03-02T07:09:38;48.75;;;30.25;;
43337;SDS011;28933;52.492;13.434;2024-03-02T07:12:24;49.15;;;32.10;;
43337;SDS011;28933;52.492;13.434;2024-03-02T07:15:10;49.30;;;31.50;;
43337;SDS011;28933;52.492;13.434;2024-03-02T07:18:19;44.75;;;29.25;;
43337;SDS011;28933;52.492;13.434;2024-03-02T07:21:05;49.55;;;33.00;;
43337;SDS011;28933;52.492;13.434;2024-03-02T07:23:51;43.17;;;29.25;;
43337;SDS011;28933;52.492;13.434;2024-03-02T07:26:37;42.33;;;30.63;;
43337;SDS011;28933;52.492;13.434;2024-03-02T07:29:23;49.45;;;30.48;;
43337;SDS011;28933;52.492;13.434;2024-03-02T07:32:09;43.55;;;28.80;;
43337;SDS011;28933;52.492;13.434;2024-03-02T07:34:55;43.22;;;29.20;;
43337;SDS011;28933;52.492;13.434;2024-03-02T07:37:42;46.72;;;30.33;;
43337;SDS011;28933;52.492;13.434;2024-03-02T07:40:28;46.70;;;30.83;;
43337;SDS011;28933;52.492;13.434;2024-03-02T07:43:14;48.38;;;31.67;;
43337;SDS011;28933;52.492;13.434;2024-03-02T07:46:00;49.53;;;32.30;;
43337;SDS011;28933;52.492;13.434;2024-03-02T07:48:46;46.53;;;29.70;;
43337;SDS011;28933;52.492;13.434;2024-03-02T07:51:33;44.88;;;28.90;;
43337;SDS011;28933;52.492;13.434;2024-03-02T07:54:19;48.50;;;29.45;;
43337;SDS011;28933;52.492;13.434;2024-03-02T07:57:05;47.00;;;29.15;;
43337;SDS011;28933;52.492;13.434;2024-03-02T07:59:51;42.58;;;28.98;;
43337;SDS011;28933;52.492;13.434;2024-03-02T08:02:37;40.00;;;28.08;;
43337;SDS011;28933;52.492;13.434;2024-03-02T08:05:23;52.58;;;31.40;;
43337;SDS011;28933;52.492;13.434;2024-03-02T08:08:09;48.28;;;31.42;;
43337;SDS011;28933;52.492;13.434;2024-03-02T08:10:55;46.88;;;29.55;;
43337;SDS011;28933;52.492;13.434;2024-03-02T08:13:41;44.13;;;31.17;;
43337;SDS011;28933;52.492;13.434;2024-03-02T08:16:27;44.85;;;30.70;;
43337;SDS011;28933;52.492;13.434;2024-03-02T08:19:13;47.30;;;30.65;;
43337;SDS011;28933;52.492;13.434;2024-03-02T08:21:59;48.10;;;28.95;;
43337;SDS011;28933;52.492;13.434;2024-03-02T08:24:45;47.00;;;29.65;;
43337;SDS011;28933;52.492;13.434;2024-03-02T08:27:31;43.38;;;28.95;;
43337;SDS011;28933;52.492;13.434;2024-03-02T08:30:18;42.25;;;28.58;;
43337;SDS011;28933;52.492;13.434;2024-03-02T08:33:04;44.38;;;27.98;;
43337;SDS011;28933;52.492;13.434;2024-03-02T08:35:51;38.22;;;27.10;;
43337;SDS011;28933;52.492;13.434;2024-03-02T08:38:37;41.38;;;27.30;;
43337;SDS011;28933;52.492;13.434;2024-03-02T08:41:23;42.20;;;27.92;;
43337;SDS011;28933;52.492;13.434;2024-03-02T08:44:09;42.60;;;29.27;;
43337;SDS011;28933;52.492;13.434;2024-03-02T08:46:55;36.42;;;24.92;;
43337;SDS011;28933;52.492;13.434;2024-03-02T08:49:41;42.45;;;27.85;;
43337;SDS011;28933;52.492;13.434;2024-03-02T08:52:28;38.00;;;27.05;;
43337;SDS011;28933;52.492;13.434;2024-03-02T08:55:14;38.60;;;25.95;;
43337;SDS011;28933;52.492;13.434;2024-03-02T08:58:00;36.25;;;25.83;;
43337;SDS011;28933;52.492;13.434;2024-03-02T09:00:46;37.15;;;25.27;;
43337;SDS011;28933;52.492;13.434;2024-03-02T09:03:35;40.65;;;26.45;;
43337;SDS011;28933;52.492;13.434;2024-03-02T09:06:22;40.13;;;26.95;;
43337;SDS011;28933;52.492;13.434;2024-03-02T09:09:08;39.53;;;27.27;;
43337;SDS011;28933;52.492;13.434;2024-03-02T09:11:54;41.95;;;28.85;;
43337;SDS011;28933;52.492;13.434;2024-03-02T09:14:43;42.72;;;27.13;;
43337;SDS011;28933;52.492;13.434;2024-03-02T09:17:29;39.85;;;27.20;;
43337;SDS011;28933;52.492;13.434;2024-03-02T09:20:15;44.08;;;28.48;;
43337;SDS011;28933;52.492;13.434;2024-03-02T09:23:01;44.60;;;28.67;;
43337;SDS011;28933;52.492;13.434;2024-03-02T09:25:47;38.45;;;25.85;;
43337;SDS011;28933;52.492;13.434;2024-03-02T09:28:34;40.60;;;27.38;;
43337;SDS011;28933;52.492;13.434;2024-03-02T09:31:20;45.55;;;28.88;;
43337;SDS011;28933;52.492;13.434;2024-03-02T09:34:06;40.63;;;27.63;;
43337;SDS011;28933;52.492;13.434;2024-03-02T09:36:52;40.22;;;26.65;;
43337;SDS011;28933;52.492;13.434;2024-03-02T09:39:38;40.13;;;27.10;;
43337;SDS011;28933;52.492;13.434;2024-03-02T09:42:23;37.50;;;26.55;;
43337;SDS011;28933;52.492;13.434;2024-03-02T09:45:10;38.78;;;25.17;;
43337;SDS011;28933;52.492;13.434;2024-03-02T09:47:56;40.08;;;24.88;;
43337;SDS011;28933;52.492;13.434;2024-03-02T09:50:42;37.05;;;23.90;;
43337;SDS011;28933;52.492;13.434;2024-03-02T09:53:32;39.35;;;25.10;;
43337;SDS011;28933;52.492;13.434;2024-03-02T09:56:20;37.25;;;23.73;;
43337;SDS011;28933;52.492;13.434;2024-03-02T09:59:06;40.97;;;25.05;;
43337;SDS011;28933;52.492;13.434;2024-03-02T10:01:59;35.22;;;24.00;;
43337;SDS011;28933;52.492;13.434;2024-03-02T10:04:48;32.78;;;22.50;;
43337;SDS011;28933;52.492;13.434;2024-03-02T10:07:34;31.15;;;22.42;;
43337;SDS011;28933;52.492;13.434;2024-03-02T10:10:20;33.80;;;23.15;;
43337;SDS011;28933;52.492;13.434;2024-03-02T10:13:07;34.80;;;24.02;;
43337;SDS011;28933;52.492;13.434;2024-03-02T10:15:57;34.55;;;22.80;;
43337;SDS011;28933;52.492;13.434;2024-03-02T10:18:57;29.83;;;20.90;;
43337;SDS011;28933;52.492;13.434;2024-03-02T10:21:46;32.10;;;22.17;;
43337;SDS011;28933;52.492;13.434;2024-03-02T10:24:39;30.88;;;21.30;;
43337;SDS011;28933;52.492;13.434;2024-03-02T10:27:31;30.85;;;20.85;;
43337;SDS011;28933;52.492;13.434;2024-03-02T10:30:19;25.33;;;18.60;;
43337;SDS011;28933;52.492;13.434;2024-03-02T10:33:05;27.25;;;18.83;;
43337;SDS011;28933;52.492;13.434;2024-03-02T10:35:52;25.63;;;18.13;;
43337;SDS011;28933;52.492;13.434;2024-03-02T10:38:38;28.23;;;18.13;;
43337;SDS011;28933;52.492;13.434;2024-03-02T10:41:26;28.25;;;18.77;;
43337;SDS011;28933;52.492;13.434;2024-03-02T10:44:13;24.30;;;17.13;;
43337;SDS011;28933;52.492;13.434;2024-03-02T10:47:00;24.88;;;16.70;;
43337;SDS011;28933;52.492;13.434;2024-03-02T10:49:48;30.15;;;18.02;;
43337;SDS011;28933;52.492;13.434;2024-03-02T10:52:35;22.38;;;16.00;;
43337;SDS011;28933;52.492;13.434;2024-03-02T10:55:21;29.65;;;17.58;;
43337;SDS011;28933;52.492;13.434;2024-03-02T10:58:07;24.02;;;15.68;;
43337;SDS011;28933;52.492;13.434;2024-03-02T11:00:58;26.90;;;16.05;;
43337;SDS011;28933;52.492;13.434;2024-03-02T11:03:47;24.92;;;15.95;;
43337;SDS011;28933;52.492;13.434;2024-03-02T11:06:34;22.85;;;15.43;;
43337;SDS011;28933;52.492;13.434;2024-03-02T11:09:25;23.48;;;16.27;;
43337;SDS011;28933;52.492;13.434;2024-03-02T11:12:19;24.88;;;16.83;;
43337;SDS011;28933;52.492;13.434;2024-03-02T11:15:10;21.33;;;15.63;;
43337;SDS011;28933;52.492;13.434;2024-03-02T11:17:57;24.23;;;16.10;;
43337;SDS011;28933;52.492;13.434;2024-03-02T11:20:44;24.38;;;15.23;;
43337;SDS011;28933;52.492;13.434;2024-03-02T11:23:33;24.33;;;15.40;;
43337;SDS011;28933;52.492;13.434;2024-03-02T11:26:20;24.27;;;17.63;;
43337;SDS011;28933;52.492;13.434;2024-03-02T11:29:08;23.27;;;15.82;;
43337;SDS011;28933;52.492;13.434;2024-03-02T11:32:22;24.35;;;16.02;;
43337;SDS011;28933;52.492;13.434;2024-03-02T11:35:11;23.80;;;15.50;;
43337;SDS011;28933;52.492;13.434;2024-03-02T11:37:57;24.63;;;16.60;;
43337;SDS011;28933;52.492;13.434;2024-03-02T11:40:44;23.10;;;14.85;;
43337;SDS011;28933;52.492;13.434;2024-03-02T11:43:30;25.25;;;16.88;;
43337;SDS011;28933;52.492;13.434;2024-03-02T11:46:17;23.52;;;14.52;;
43337;SDS011;28933;52.492;13.434;2024-03-02T11:49:07;25.77;;;15.73;;
43337;SDS011;28933;52.492;13.434;2024-03-02T11:52:00;21.08;;;14.55;;
43337;SDS011;28933;52.492;13.434;2024-03-02T11:54:47;22.00;;;14.52;;
43337;SDS011;28933;52.492;13.434;2024-03-02T11:57:34;22.75;;;14.32;;
43337;SDS011;28933;52.492;13.434;2024-03-02T12:00:20;20.08;;;13.35;;
43337;SDS011;28933;52.492;13.434;2024-03-02T12:03:07;22.25;;;14.23;;
43337;SDS011;28933;52.492;13.434;2024-03-02T12:05:54;21.05;;;14.18;;
43337;SDS011;28933;52.492;13.434;2024-03-02T12:08:41;22.98;;;14.77;;
43337;SDS011;28933;52.492;13.434;2024-03-02T12:11:27;23.48;;;14.07;;
43337;SDS011;28933;52.492;13.434;2024-03-02T12:14:12;22.65;;;15.40;;
43337;SDS011;28933;52.492;13.434;2024-03-02T12:16:59;21.17;;;14.73;;
43337;SDS011;28933;52.492;13.434;2024-03-02T12:19:45;22.15;;;15.80;;
43337;SDS011;28933;52.492;13.434;2024-03-02T12:22:31;20.70;;;14.00;;
43337;SDS011;28933;52.492;13.434;2024-03-02T12:25:17;21.90;;;13.55;;
43337;SDS011;28933;52.492;13.434;2024-03-02T12:28:04;23.33;;;15.02;;
43337;SDS011;28933;52.492;13.434;2024-03-02T12:30:50;20.15;;;13.70;;
43337;SDS011;28933;52.492;13.434;2024-03-02T12:33:37;20.17;;;13.23;;
43337;SDS011;28933;52.492;13.434;2024-03-02T12:36:23;19.42;;;13.30;;
43337;SDS011;28933;52.492;13.434;2024-03-02T12:39:09;20.55;;;13.90;;
43337;SDS011;28933;52.492;13.434;2024-03-02T12:41:57;20.55;;;13.70;;
43337;SDS011;28933;52.492;13.434;2024-03-02T12:44:43;19.58;;;12.48;;
43337;SDS011;28933;52.492;13.434;2024-03-02T12:47:29;19.63;;;12.90;;
43337;SDS011;28933;52.492;13.434;2024-03-02T12:50:15;21.50;;;13.30;;
43337;SDS011;28933;52.492;13.434;2024-03-02T12:53:01;20.48;;;14.70;;
43337;SDS011;28933;52.492;13.434;2024-03-02T12:55:47;23.02;;;12.30;;
43337;SDS011;28933;52.492;13.434;2024-03-02T12:58:40;23.55;;;13.23;;
43337;SDS011;28933;52.492;13.434;2024-03-02T13:01:27;18.15;;;12.48;;
43337;SDS011;28933;52.492;13.434;2024-03-02T13:04:13;17.67;;;12.40;;
43337;SDS011;28933;52.492;13.434;2024-03-02T13:06:59;19.13;;;10.88;;
43337;SDS011;28933;52.492;13.434;2024-03-02T13:09:45;16.00;;;10.60;;
43337;SDS011;28933;52.492;13.434;2024-03-02T13:12:31;19.55;;;11.63;;
43337;SDS011;28933;52.492;13.434;2024-03-02T13:15:18;16.95;;;11.23;;
43337;SDS011;28933;52.492;13.434;2024-03-02T13:18:06;16.80;;;11.70;;
43337;SDS011;28933;52.492;13.434;2024-03-02T13:20:52;23.42;;;13.18;;
43337;SDS011;28933;52.492;13.434;2024-03-02T13:23:38;17.50;;;11.45;;
43337;SDS011;28933;52.492;13.434;2024-03-02T13:26:24;18.52;;;12.00;;
43337;SDS011;28933;52.492;13.434;2024-03-02T13:29:10;19.35;;;12.55;;
43337;SDS011;28933;52.492;13.434;2024-03-02T13:31:57;16.33;;;10.02;;
43337;SDS011;28933;52.492;13.434;2024-03-02T13:34:43;14.75;;;10.20;;
43337;SDS011;28933;52.492;13.434;2024-03-02T13:37:29;16.13;;;10.68;;
43337;SDS011;28933;52.492;13.434;2024-03-02T13:40:15;17.45;;;12.07;;
43337;SDS011;28933;52.492;13.434;2024-03-02T13:43:05;17.45;;;10.52;;
43337;SDS011;28933;52.492;13.434;2024-03-02T13:45:51;15.88;;;10.43;;
43337;SDS011;28933;52.492;13.434;2024-03-02T13:48:37;15.35;;;11.00;;
43337;SDS011;28933;52.492;13.434;2024-03-02T13:51:23;15.32;;;9.70;;
43337;SDS011;28933;52.492;13.434;2024-03-02T13:54:10;18.77;;;10.63;;
43337;SDS011;28933;52.492;13.434;2024-03-02T13:56:56;16.83;;;11.00;;
43337;SDS011;28933;52.492;13.434;2024-03-02T13:59:45;17.25;;;11.32;;
43337;SDS011;28933;52.492;13.434;2024-03-02T14:02:32;16.75;;;10.57;;
43337;SDS011;28933;52.492;13.434;2024-03-02T14:05:18;16.80;;;9.82;;
43337;SDS011;28933;52.492;13.434;2024-03-02T14:08:04;14.50;;;9.93;;
43337;SDS011;28933;52.492;13.434;2024-03-02T14:10:50;14.52;;;9.57;;
43337;SDS011;28933;52.492;13.434;2024-03-02T14:13:36;18.42;;;10.73;;
43337;SDS011;28933;52.492;13.434;2024-03-02T14:16:22;13.85;;;9.70;;
43337;SDS011;28933;52.492;13.434;2024-03-02T14:19:08;12.57;;;8.18;;
43337;SDS011;28933;52.492;13.434;2024-03-02T14:21:54;10.95;;;7.25;;
43337;SDS011;28933;52.492;13.434;2024-03-02T14:24:41;12.52;;;8.15;;
43337;SDS011;28933;52.492;13.434;2024-03-02T14:27:28;11.73;;;8.00;;
43337;SDS011;28933;52.492;13.434;2024-03-02T14:30:14;14.85;;;8.65;;
43337;SDS011;28933;52.492;13.434;2024-03-02T14:33:00;12.13;;;7.88;;
43337;SDS011;28933;52.492;13.434;2024-03-02T14:35:46;13.45;;;8.55;;
43337;SDS011;28933;52.492;13.434;2024-03-02T14:38:32;11.23;;;7.97;;
43337;SDS011;28933;52.492;13.434;2024-03-02T14:41:18;10.82;;;7.68;;
43337;SDS011;28933;52.492;13.434;2024-03-02T14:44:04;12.15;;;8.35;;
43337;SDS011;28933;52.492;13.434;2024-03-02T14:46:50;13.57;;;7.95;;
43337;SDS011;28933;52.492;13.434;2024-03-02T14:49:36;18.70;;;9.48;;
43337;SDS011;28933;52.492;13.434;2024-03-02T14:52:25;14.95;;;8.88;;
43337;SDS011;28933;52.492;13.434;2024-03-02T14:55:11;13.25;;;8.65;;
43337;SDS011;28933;52.492;13.434;2024-03-02T14:57:57;16.23;;;9.18;;
43337;SDS011;28933;52.492;13.434;2024-03-02T15:00:43;12.70;;;8.70;;
43337;SDS011;28933;52.492;13.434;2024-03-02T15:03:29;14.48;;;8.73;;
43337;SDS011;28933;52.492;13.434;2024-03-02T15:06:15;16.48;;;9.98;;
43337;SDS011;28933;52.492;13.434;2024-03-02T15:09:01;12.07;;;9.25;;
43337;SDS011;28933;52.492;13.434;2024-03-02T15:11:47;15.02;;;9.18;;
43337;SDS011;28933;52.492;13.434;2024-03-02T15:14:33;15.35;;;8.93;;
43337;SDS011;28933;52.492;13.434;2024-03-02T15:17:19;12.95;;;8.52;;
43337;SDS011;28933;52.492;13.434;2024-03-02T15:20:05;16.88;;;8.95;;
43337;SDS011;28933;52.492;13.434;2024-03-02T15:22:52;14.65;;;8.77;;
43337;SDS011;28933;52.492;13.434;2024-03-02T15:25:38;13.25;;;8.23;;
43337;SDS011;28933;52.492;13.434;2024-03-02T15:28:24;12.15;;;7.97;;
43337;SDS011;28933;52.492;13.434;2024-03-02T15:31:10;11.82;;;8.10;;
43337;SDS011;28933;52.492;13.434;2024-03-02T15:33:56;11.40;;;7.53;;
43337;SDS011;28933;52.492;13.434;2024-03-02T15:36:43;13.95;;;8.50;;
43337;SDS011;28933;52.492;13.434;2024-03-02T15:39:29;11.30;;;6.40;;
43337;SDS011;28933;52.492;13.434;2024-03-02T15:42:15;12.95;;;8.27;;
43337;SDS011;28933;52.492;13.434;2024-03-02T15:45:01;11.93;;;8.23;;
43337;SDS011;28933;52.492;13.434;2024-03-02T15:47:48;10.32;;;6.78;;
43337;SDS011;28933;52.492;13.434;2024-03-02T15:50:34;9.77;;;6.07;;
43337;SDS011;28933;52.492;13.434;2024-03-02T15:53:21;8.82;;;6.13;;
43337;SDS011;28933;52.492;13.434;2024-03-02T15:56:07;9.70;;;6.03;;
43337;SDS011;28933;52.492;13.434;2024-03-02T15:58:55;8.48;;;5.68;;
43337;SDS011;28933;52.492;13.434;2024-03-02T16:01:41;8.65;;;5.85;;
43337;SDS011;28933;52.492;13.434;2024-03-02T16:04:28;11.05;;;6.68;;
43337;SDS011;28933;52.492;13.434;2024-03-02T16:07:14;9.55;;;6.20;;
43337;SDS011;28933;52.492;13.434;2024-03-02T16:10:00;9.18;;;6.32;;